sensor_id;sensor_type;location;lat;lon;timestamp;pressure;altitude;pressure_sealevel;temperature;humidity
4586;BME280;2305;50.118;8.952;2023-01-29T00:00:14;101920.72;;;2.19;100.00
4586;BME280;2305;50.118;8.952;2023-01-29T00:02:42;101913.84;;;2.17;100.00
4586;BME280;2305;50.118;8.952;2023-01-29T00:05:10;101914.84;;;2.11;100.00
4586;BME280;2305;50.118;8.952;2023-01-29T00:07:53;101921.84;;;2.08;100.00
4586;BME280;2305;50.118;8.952;2023-01-29T00:10:24;101924.38;;;2.11;100.00
4586;BME280;2305;50.118;8.952;2023-01-29T00:12:52;101930.44;;;2.11;100.00
4586;BME280;2305;50.118;8.952;2023-01-29T00:15:22;101930.44;;;2.11;100.00
4586;BME280;2305;50.118;8.952;2023-01-29T00:17:50;101935.56;;;2.14;100.00
4586;BME280;2305;50.118;8.952;2023-01-29T00:20:18;101929.53;;;2.14;100.00
4586;BME280;2305;50.118;8.952;2023-01-29T00:22:47;101937.34;;;2.14;100.00
4586;BME280;2305;50.118;8.952;2023-01-29T00:25:15;101938.97;;;2.16;100.00
4586;BME280;2305;50.118;8.952;2023-01-29T00:27:43;101938.13;;;2.17;100.00
4586;BME280;2305;50.118;8.952;2023-01-29T00:30:12;101942.47;;;2.15;100.00
4586;BME280;2305;50.118;8.952;2023-01-29T00:32:44;101946.84;;;2.13;100.00
4586;BME280;2305;50.118;8.952;2023-01-29T00:35:12;101945.97;;;2.14;100.00
4586;BME280;2305;50.118;8.952;2023-01-29T00:37:42;101951.13;;;2.17;100.00
4586;BME280;2305;50.118;8.952;2023-01-29T00:40:10;101950.16;;;2.20;100.00
4586;BME280;2305;50.118;8.952;2023-01-29T00:42:39;101956.25;;;2.20;100.00
4586;BME280;2305;50.118;8.952;2023-01-29T00:45:25;101948.47;;;2.19;100.00
4586;BME280;2305;50.118;8.952;2023-01-29T00:47:54;101940.72;;;2.17;100.00
4586;BME280;2305;50.118;8.952;2023-01-29T00:50:23;101945.88;;;2.19;100.00
4586;BME280;2305;50.118;8.952;2023-01-29T00:52:52;101937.22;;;2.18;100.00
4586;BME280;2305;50.118;8.952;2023-01-29T00:55:20;101937.25;;;2.17;100.00
4586;BME280;2305;50.118;8.952;2023-01-29T00:57:49;101922.53;;;2.16;100.00
4586;BME280;2305;50.118;8.952;2023-01-29T01:00:18;101915.63;;;2.15;100.00
4586;BME280;2305;50.118;8.952;2023-01-29T01:02:46;101910.34;;;2.18;100.00
4586;BME280;2305;50.118;8.952;2023-01-29T01:05:33;101916.38;;;2.20;100.00
4586;BME280;2305;50.118;8.952;2023-01-29T01:08:03;101918.13;;;2.19;100.00
4586;BME280;2305;50.118;8.952;2023-01-29T01:10:58;101910.44;;;2.15;100.00
4586;BME280;2305;50.118;8.952;2023-01-29T01:13:25;101910.47;;;2.13;100.00
4586;BME280;2305;50.118;8.952;2023-01-29T01:15:54;101914.84;;;2.11;100.00
4586;BME280;2305;50.118;8.952;2023-01-29T01:18:22;101914.84;;;2.11;100.00
4586;BME280;2305;50.118;8.952;2023-01-29T01:20:57;101913.16;;;2.10;100.00
4586;BME280;2305;50.118;8.952;2023-01-29T01:23:25;101916.66;;;2.08;100.00
4586;BME280;2305;50.118;8.952;2023-01-29T01:25:54;101913.22;;;2.06;100.00
4586;BME280;2305;50.118;8.952;2023-01-29T01:28:22;101914.97;;;2.05;100.00
4586;BME280;2305;50.118;8.952;2023-01-29T01:30:50;101909.75;;;2.07;100.00
4586;BME280;2305;50.118;8.952;2023-01-29T01:33:19;101901.97;;;2.07;100.00
4586;BME280;2305;50.118;8.952;2023-01-29T01:35:47;101906.25;;;2.08;100.00
4586;BME280;2305;50.118;8.952;2023-01-29T01:38:16;101895.88;;;2.08;100.00
4586;BME280;2305;50.118;8.952;2023-01-29T01:40:46;101898.50;;;2.05;100.00
4586;BME280;2305;50.118;8.952;2023-01-29T01:43:15;101891.63;;;2.02;100.00
4586;BME280;2305;50.118;8.952;2023-01-29T01:45:43;101893.31;;;2.05;100.00
4586;BME280;2305;50.118;8.952;2023-01-29T01:48:16;101887.22;;;2.06;100.00
4586;BME280;2305;50.118;8.952;2023-01-29T01:50:48;101880.50;;;1.97;100.00
4586;BME280;2305;50.118;8.952;2023-01-29T01:53:24;101876.25;;;1.93;100.00
4586;BME280;2305;50.118;8.952;2023-01-29T01:55:56;101877.13;;;1.94;100.00
4586;BME280;2305;50.118;8.952;2023-01-29T01:58:31;101867.63;;;1.93;100.00
4586;BME280;2305;50.118;8.952;2023-01-29T02:01:02;101875.50;;;1.88;100.00
4586;BME280;2305;50.118;8.952;2023-01-29T02:03:32;101870.34;;;1.87;100.00
4586;BME280;2305;50.118;8.952;2023-01-29T02:06:20;101870.44;;;1.82;100.00
4586;BME280;2305;50.118;8.952;2023-01-29T02:09:13;101862.69;;;1.79;100.00
4586;BME280;2305;50.118;8.952;2023-01-29T02:12:13;101858.72;;;1.63;100.00
4586;BME280;2305;50.118;8.952;2023-01-29T02:14:44;101864.78;;;1.64;100.00
4586;BME280;2305;50.118;8.952;2023-01-29T02:17:14;101855.47;;;1.52;100.00
4586;BME280;2305;50.118;8.952;2023-01-29T02:19:47;101865.13;;;1.47;100.00
4586;BME280;2305;50.118;8.952;2023-01-29T02:22:50;101871.03;;;1.52;100.00
4586;BME280;2305;50.118;8.952;2023-01-29T02:25:46;101864.91;;;1.56;100.00
4586;BME280;2305;50.118;8.952;2023-01-29T02:28:30;101868.38;;;1.57;100.00
4586;BME280;2305;50.118;8.952;2023-01-29T02:31:05;101873.53;;;1.58;100.00
4586;BME280;2305;50.118;8.952;2023-01-29T02:33:43;101871.78;;;1.59;100.00
4586;BME280;2305;50.118;8.952;2023-01-29T02:36:20;101880.47;;;1.58;100.00
4586;BME280;2305;50.118;8.952;2023-01-29T02:38:59;101881.31;;;1.58;100.00
4586;BME280;2305;50.118;8.952;2023-01-29T02:41:37;101885.56;;;1.62;100.00
4586;BME280;2305;50.118;8.952;2023-01-29T02:44:18;101890.78;;;1.62;100.00
4586;BME280;2305;50.118;8.952;2023-01-29T02:46:52;101882.97;;;1.64;100.00
4586;BME280;2305;50.118;8.952;2023-01-29T02:49:31;101889.00;;;1.64;100.00
4586;BME280;2305;50.118;8.952;2023-01-29T02:52:02;101898.50;;;1.65;100.00
4586;BME280;2305;50.118;8.952;2023-01-29T02:54:38;101903.63;;;1.68;100.00
4586;BME280;2305;50.118;8.952;2023-01-29T02:57:15;101907.03;;;1.72;100.00
4586;BME280;2305;50.118;8.952;2023-01-29T02:59:49;101917.38;;;1.73;100.00
4586;BME280;2305;50.118;8.952;2023-01-29T03:02:24;101915.75;;;1.69;100.00
4586;BME280;2305;50.118;8.952;2023-01-29T03:04:58;101912.25;;;1.70;100.00
4586;BME280;2305;50.118;8.952;2023-01-29T03:07:33;101903.59;;;1.70;100.00
4586;BME280;2305;50.118;8.952;2023-01-29T03:10:20;101907.03;;;1.72;100.00
4586;BME280;2305;50.118;8.952;2023-01-29T03:12:53;101894.03;;;1.72;100.00
4586;BME280;2305;50.118;8.952;2023-01-29T03:15:27;101891.44;;;1.72;100.00
4586;BME280;2305;50.118;8.952;2023-01-29T03:18:32;101901.88;;;1.69;100.00
4586;BME280;2305;50.118;8.952;2023-01-29T03:21:07;101891.47;;;1.70;100.00
4586;BME280;2305;50.118;8.952;2023-01-29T03:23:58;101893.19;;;1.71;100.00
4586;BME280;2305;50.118;8.952;2023-01-29T03:26:47;101900.13;;;1.71;100.00
4586;BME280;2305;50.118;8.952;2023-01-29T03:29:37;101902.66;;;1.72;100.00
4586;BME280;2305;50.118;8.952;2023-01-29T03:32:37;101909.69;;;1.69;100.00
4586;BME280;2305;50.118;8.952;2023-01-29T03:35:07;101900.19;;;1.66;100.00
4586;BME280;2305;50.118;8.952;2023-01-29T03:37:40;101912.38;;;1.63;100.00
4586;BME280;2305;50.118;8.952;2023-01-29T03:40:10;101910.72;;;1.60;100.00
4586;BME280;2305;50.118;8.952;2023-01-29T03:42:47;101903.06;;;1.54;100.00
4586;BME280;2305;50.118;8.952;2023-01-29T03:45:25;101903.84;;;1.58;100.00
4586;BME280;2305;50.118;8.952;2023-01-29T03:48:04;101904.75;;;1.55;100.00
4586;BME280;2305;50.118;8.952;2023-01-29T03:50:38;101903.06;;;1.54;100.00
4586;BME280;2305;50.118;8.952;2023-01-29T03:53:15;101897.88;;;1.54;100.00
4586;BME280;2305;50.118;8.952;2023-01-29T03:55:52;101897.00;;;1.54;100.00
4586;BME280;2305;50.118;8.952;2023-01-29T03:58:31;101891.81;;;1.52;100.00
4586;BME280;2305;50.118;8.952;2023-01-29T04:01:09;101895.41;;;1.47;100.00
4586;BME280;2305;50.118;8.952;2023-01-29T04:03:42;101898.91;;;1.44;100.00
4586;BME280;2305;50.118;8.952;2023-01-29T04:06:17;101912.00;;;1.38;100.00
4586;BME280;2305;50.118;8.952;2023-01-29T04:09:02;101912.06;;;1.37;100.00
4586;BME280;2305;50.118;8.952;2023-01-29T04:11:37;101904.28;;;1.37;100.00
4586;BME280;2305;50.118;8.952;2023-01-29T04:14:07;101897.38;;;1.34;100.00
4586;BME280;2305;50.118;8.952;2023-01-29T04:16:38;101895.72;;;1.30;100.00
4586;BME280;2305;50.118;8.952;2023-01-29T04:19:16;101893.19;;;1.27;100.00
4586;BME280;2305;50.118;8.952;2023-01-29T04:21:45;101886.28;;;1.28;100.00
4586;BME280;2305;50.118;8.952;2023-01-29T04:24:16;101875.09;;;1.24;100.00
4586;BME280;2305;50.118;8.952;2023-01-29T04:26:53;101868.16;;;1.23;100.00
4586;BME280;2305;50.118;8.952;2023-01-29T04:29:34;101858.75;;;1.19;100.00
4586;BME280;2305;50.118;8.952;2023-01-29T04:32:14;101868.34;;;1.14;100.00
4586;BME280;2305;50.118;8.952;2023-01-29T04:35:03;101865.09;;;1.03;100.00
4586;BME280;2305;50.118;8.952;2023-01-29T04:37:42;101849.66;;;0.97;100.00
4586;BME280;2305;50.118;8.952;2023-01-29T04:40:19;101846.28;;;0.92;100.00
4586;BME280;2305;50.118;8.952;2023-01-29T04:43:00;101861.31;;;0.74;100.00
4586;BME280;2305;50.118;8.952;2023-01-29T04:45:38;101866.59;;;0.68;100.00
4586;BME280;2305;50.118;8.952;2023-01-29T04:48:18;101882.16;;;0.66;100.00
4586;BME280;2305;50.118;8.952;2023-01-29T04:50:55;101883.94;;;0.63;100.00
4586;BME280;2305;50.118;8.952;2023-01-29T04:53:29;101885.72;;;0.61;100.00
4586;BME280;2305;50.118;8.952;2023-01-29T04:56:06;101894.31;;;0.63;100.00
4586;BME280;2305;50.118;8.952;2023-01-29T04:58:39;101888.25;;;0.65;100.00
4586;BME280;2305;50.118;8.952;2023-01-29T05:01:11;101895.09;;;0.69;100.00
4586;BME280;2305;50.118;8.952;2023-01-29T05:03:43;101903.78;;;0.68;100.00
4586;BME280;2305;50.118;8.952;2023-01-29T05:06:16;101897.78;;;0.65;100.00
4586;BME280;2305;50.118;8.952;2023-01-29T05:08:46;101884.75;;;0.66;100.00
4586;BME280;2305;50.118;8.952;2023-01-29T05:11:17;101888.22;;;0.68;100.00
4586;BME280;2305;50.118;8.952;2023-01-29T05:13:46;101877.84;;;0.68;100.00
4586;BME280;2305;50.118;8.952;2023-01-29T05:16:20;101876.97;;;0.68;100.00
4586;BME280;2305;50.118;8.952;2023-01-29T05:18:50;101878.69;;;0.67;100.00
4586;BME280;2305;50.118;8.952;2023-01-29T05:21:20;101870.16;;;0.62;100.00
4586;BME280;2305;50.118;8.952;2023-01-29T05:24:05;101881.34;;;0.63;100.00
4586;BME280;2305;50.118;8.952;2023-01-29T05:26:33;101877.94;;;0.62;100.00
4586;BME280;2305;50.118;8.952;2023-01-29T05:29:19;101870.97;;;0.64;100.00
4586;BME280;2305;50.118;8.952;2023-01-29T05:31:47;101864.97;;;0.61;100.00
4586;BME280;2305;50.118;8.952;2023-01-29T05:34:15;101865.00;;;0.59;100.00
4586;BME280;2305;50.118;8.952;2023-01-29T05:36:45;101859.88;;;0.55;100.00
4586;BME280;2305;50.118;8.952;2023-01-29T05:39:14;101862.66;;;0.44;100.00
4586;BME280;2305;50.118;8.952;2023-01-29T05:41:47;101868.69;;;0.46;100.00
4586;BME280;2305;50.118;8.952;2023-01-29T05:44:18;101873.00;;;0.46;100.00
4586;BME280;2305;50.118;8.952;2023-01-29T05:46:46;101877.38;;;0.42;100.00
4586;BME280;2305;50.118;8.952;2023-01-29T05:49:15;101874.00;;;0.37;100.00
4586;BME280;2305;50.118;8.952;2023-01-29T05:51:45;101880.03;;;0.39;100.00
4586;BME280;2305;50.118;8.952;2023-01-29T05:54:13;101881.75;;;0.40;100.00
4586;BME280;2305;50.118;8.952;2023-01-29T05:56:44;101878.25;;;0.41;100.00
4586;BME280;2305;50.118;8.952;2023-01-29T05:59:13;101882.56;;;0.42;100.00
4586;BME280;2305;50.118;8.952;2023-01-29T06:01:44;101876.50;;;0.43;100.00
4586;BME280;2305;50.118;8.952;2023-01-29T06:04:12;101874.88;;;0.36;100.00
4586;BME280;2305;50.118;8.952;2023-01-29T06:06:40;101871.47;;;0.34;100.00
4586;BME280;2305;50.118;8.952;2023-01-29T06:09:10;101875.84;;;0.31;100.00
4586;BME280;2305;50.118;8.952;2023-01-29T06:11:38;101872.31;;;0.35;100.00
4586;BME280;2305;50.118;8.952;2023-01-29T06:14:06;101880.84;;;0.41;100.00
4586;BME280;2305;50.118;8.952;2023-01-29T06:16:34;101877.31;;;0.45;100.00
4586;BME280;2305;50.118;8.952;2023-01-29T06:19:02;101877.31;;;0.47;100.00
4586;BME280;2305;50.118;8.952;2023-01-29T06:21:30;101872.09;;;0.48;100.00
4586;BME280;2305;50.118;8.952;2023-01-29T06:24:01;101871.22;;;0.49;100.00
4586;BME280;2305;50.118;8.952;2023-01-29T06:26:31;101872.00;;;0.54;100.00
4586;BME280;2305;50.118;8.952;2023-01-29T06:28:59;101868.63;;;0.49;100.00
4586;BME280;2305;50.118;8.952;2023-01-29T06:31:54;101867.72;;;0.53;100.00
4586;BME280;2305;50.118;8.952;2023-01-29T06:34:22;101867.63;;;0.58;100.00
4586;BME280;2305;50.118;8.952;2023-01-29T06:36:50;101871.06;;;0.60;100.00
4586;BME280;2305;50.118;8.952;2023-01-29T06:39:20;101868.63;;;0.49;100.00
4586;BME280;2305;50.118;8.952;2023-01-29T06:41:50;101865.97;;;0.52;100.00
4586;BME280;2305;50.118;8.952;2023-01-29T06:44:18;101851.31;;;0.51;100.00
4586;BME280;2305;50.118;8.952;2023-01-29T06:46:46;101848.63;;;0.57;100.00
4586;BME280;2305;50.118;8.952;2023-01-29T06:49:14;101858.09;;;0.58;100.00
4586;BME280;2305;50.118;8.952;2023-01-29T06:51:42;101858.97;;;0.57;100.00
4586;BME280;2305;50.118;8.952;2023-01-29T06:54:10;101853.78;;;0.59;100.00
4586;BME280;2305;50.118;8.952;2023-01-29T06:56:39;101859.97;;;0.50;100.00
4586;BME280;2305;50.118;8.952;2023-01-29T06:59:10;101867.72;;;0.52;100.00
4586;BME280;2305;50.118;8.952;2023-01-29T07:01:38;101871.97;;;0.56;100.00
4586;BME280;2305;50.118;8.952;2023-01-29T07:04:07;101878.84;;;0.58;100.00
4586;BME280;2305;50.118;8.952;2023-01-29T07:06:36;101882.22;;;0.63;100.00
4586;BME280;2305;50.118;8.952;2023-01-29T07:09:04;101892.59;;;0.65;100.00
4586;BME280;2305;50.118;8.952;2023-01-29T07:11:35;101890.81;;;0.68;100.00
4586;BME280;2305;50.118;8.952;2023-01-29T07:14:04;101899.41;;;0.69;100.00
4586;BME280;2305;50.118;8.952;2023-01-29T07:16:35;101909.75;;;0.72;100.00
4586;BME280;2305;50.118;8.952;2023-01-29T07:19:03;101906.28;;;0.73;100.00
4586;BME280;2305;50.118;8.952;2023-01-29T07:21:34;101902.81;;;0.74;100.00
4586;BME280;2305;50.118;8.952;2023-01-29T07:24:03;101890.63;;;0.77;100.00
4586;BME280;2305;50.118;8.952;2023-01-29T07:26:31;101903.59;;;0.79;100.00
4586;BME280;2305;50.118;8.952;2023-01-29T07:28:59;101899.22;;;0.81;100.00
4586;BME280;2305;50.118;8.952;2023-01-29T07:31:27;101899.16;;;0.85;100.00
4586;BME280;2305;50.118;8.952;2023-01-29T07:33:57;101901.63;;;0.93;100.00
4586;BME280;2305;50.118;8.952;2023-01-29T07:36:25;101899.75;;;0.99;100.00
4586;BME280;2305;50.118;8.952;2023-01-29T07:38:56;101890.19;;;1.03;100.00
4586;BME280;2305;50.118;8.952;2023-01-29T07:41:24;101897.91;;;1.06;100.00
4586;BME280;2305;50.118;8.952;2023-01-29T07:43:53;101897.88;;;1.07;100.00
4586;BME280;2305;50.118;8.952;2023-01-29T07:46:21;101905.59;;;1.12;100.00
4586;BME280;2305;50.118;8.952;2023-01-29T07:48:50;101897.78;;;1.13;100.00
4586;BME280;2305;50.118;8.952;2023-01-29T07:51:19;101882.13;;;1.16;100.00
4586;BME280;2305;50.118;8.952;2023-01-29T07:53:48;101870.81;;;1.22;100.00
4586;BME280;2305;50.118;8.952;2023-01-29T07:56:15;101865.50;;;1.28;100.00
4586;BME280;2305;50.118;8.952;2023-01-29T07:58:44;101870.69;;;1.28;100.00
4586;BME280;2305;50.118;8.952;2023-01-29T08:01:12;101875.81;;;1.32;100.00
4586;BME280;2305;50.118;8.952;2023-01-29T08:03:43;101882.59;;;1.38;100.00
4586;BME280;2305;50.118;8.952;2023-01-29T08:06:11;101886.88;;;1.40;100.00
4586;BME280;2305;50.118;8.952;2023-01-29T08:08:40;101890.28;;;1.44;100.00
4586;BME280;2305;50.118;8.952;2023-01-29T08:11:09;101896.19;;;1.52;100.00
4586;BME280;2305;50.118;8.952;2023-01-29T08:13:37;101898.59;;;1.59;100.00
4586;BME280;2305;50.118;8.952;2023-01-29T08:16:06;101911.47;;;1.65;100.00
4586;BME280;2305;50.118;8.952;2023-01-29T08:18:35;101920.03;;;1.72;100.00
4586;BME280;2305;50.118;8.952;2023-01-29T08:21:06;101920.72;;;1.80;100.00
4586;BME280;2305;50.118;8.952;2023-01-29T08:23:34;101907.72;;;1.80;100.00
4586;BME280;2305;50.118;8.952;2023-01-29T08:26:04;101892.94;;;1.83;100.00
4586;BME280;2305;50.118;8.952;2023-01-29T08:28:33;101882.34;;;1.92;100.00
4586;BME280;2305;50.118;8.952;2023-01-29T08:31:01;101879.59;;;2.00;100.00
4586;BME280;2305;50.118;8.952;2023-01-29T08:33:29;101877.81;;;2.00;100.00
4586;BME280;2305;50.118;8.952;2023-01-29T08:36:06;101885.50;;;2.05;100.00
4586;BME280;2305;50.118;8.952;2023-01-29T08:38:34;101882.81;;;2.09;100.00
4586;BME280;2305;50.118;8.952;2023-01-29T08:41:04;101890.47;;;2.15;100.00
4586;BME280;2305;50.118;8.952;2023-01-29T08:43:33;101892.19;;;2.16;100.00
4586;BME280;2305;50.118;8.952;2023-01-29T08:46:03;101891.13;;;2.25;100.00
4586;BME280;2305;50.118;8.952;2023-01-29T08:48:31;101885.81;;;2.29;100.00
4586;BME280;2305;50.118;8.952;2023-01-29T08:51:01;101885.88;;;2.28;100.00
4586;BME280;2305;50.118;8.952;2023-01-29T08:53:30;101894.63;;;2.24;100.00
4586;BME280;2305;50.118;8.952;2023-01-29T08:55:58;101888.63;;;2.22;100.00
4586;BME280;2305;50.118;8.952;2023-01-29T08:58:30;101891.09;;;2.26;100.00
4586;BME280;2305;50.118;8.952;2023-01-29T09:01:05;101898.81;;;2.29;100.00
4586;BME280;2305;50.118;8.952;2023-01-29T09:03:33;101890.22;;;2.27;100.00
4586;BME280;2305;50.118;8.952;2023-01-29T09:06:02;101902.28;;;2.30;100.00
4586;BME280;2305;50.118;8.952;2023-01-29T09:08:32;101927.41;;;2.31;100.00
4586;BME280;2305;50.118;8.952;2023-01-29T09:11:01;101937.72;;;2.34;100.00
4586;BME280;2305;50.118;8.952;2023-01-29T09:13:31;101929.88;;;2.37;100.00
4586;BME280;2305;50.118;8.952;2023-01-29T09:16:02;101915.09;;;2.37;100.00
4586;BME280;2305;50.118;8.952;2023-01-29T09:18:31;101935.00;;;2.40;100.00
4586;BME280;2305;50.118;8.952;2023-01-29T09:21:00;101943.56;;;2.43;100.00
4586;BME280;2305;50.118;8.952;2023-01-29T09:23:28;101960.34;;;2.30;100.00
4586;BME280;2305;50.118;8.952;2023-01-29T09:25:58;101954.31;;;2.28;100.00
4586;BME280;2305;50.118;8.952;2023-01-29T09:28:26;101956.81;;;2.33;100.00
4586;BME280;2305;50.118;8.952;2023-01-29T09:30:59;101961.09;;;2.35;100.00
4586;BME280;2305;50.118;8.952;2023-01-29T09:33:28;101960.31;;;2.32;100.00
4586;BME280;2305;50.118;8.952;2023-01-29T09:35:58;101955.00;;;2.36;100.00
4586;BME280;2305;50.118;8.952;2023-01-29T09:38:26;101953.19;;;2.40;100.00
4586;BME280;2305;50.118;8.952;2023-01-29T09:41:01;101963.56;;;2.43;100.00
4586;BME280;2305;50.118;8.952;2023-01-29T09:43:41;101940.19;;;2.40;100.00
4586;BME280;2305;50.118;8.952;2023-01-29T09:46:18;101956.63;;;2.42;100.00
4586;BME280;2305;50.118;8.952;2023-01-29T09:48:59;101953.97;;;2.43;100.00
4586;BME280;2305;50.118;8.952;2023-01-29T09:51:32;101950.50;;;2.44;100.00
4586;BME280;2305;50.118;8.952;2023-01-29T09:54:13;101946.41;;;2.33;100.00
4586;BME280;2305;50.118;8.952;2023-01-29T09:56:45;101943.00;;;2.31;100.00
4586;BME280;2305;50.118;8.952;2023-01-29T09:59:16;101948.91;;;2.37;100.00
4586;BME280;2305;50.118;8.952;2023-01-29T10:01:56;101935.78;;;2.43;100.00
4586;BME280;2305;50.118;8.952;2023-01-29T10:04:40;101940.84;;;2.49;100.00
4586;BME280;2305;50.118;8.952;2023-01-29T10:07:35;101929.53;;;2.52;100.00
4586;BME280;2305;50.118;8.952;2023-01-29T10:10:21;101918.19;;;2.54;100.00
4586;BME280;2305;50.118;8.952;2023-01-29T10:13:01;101917.16;;;2.61;100.00
4586;BME280;2305;50.118;8.952;2023-01-29T10:15:39;101917.00;;;2.67;100.00
4586;BME280;2305;50.118;8.952;2023-01-29T10:21:18;101891.44;;;2.83;100.00
4586;BME280;2305;50.118;8.952;2023-01-29T10:23:53;101896.53;;;2.87;100.00
4586;BME280;2305;50.118;8.952;2023-01-29T10:26:26;101885.34;;;2.84;100.00
4586;BME280;2305;50.118;8.952;2023-01-29T10:29:17;101873.19;;;2.84;100.00
4586;BME280;2305;50.118;8.952;2023-01-29T10:31:49;101866.97;;;2.90;100.00
4586;BME280;2305;50.118;8.952;2023-01-29T10:34:25;101875.63;;;2.92;100.00
4586;BME280;2305;50.118;8.952;2023-01-29T10:36:54;101872.97;;;2.93;100.00
4586;BME280;2305;50.118;8.952;2023-01-29T10:39:24;101876.47;;;2.92;100.00
4586;BME280;2305;50.118;8.952;2023-01-29T10:42:05;101875.50;;;2.96;100.00
4586;BME280;2305;50.118;8.952;2023-01-29T10:44:49;101871.13;;;2.97;100.00
4586;BME280;2305;50.118;8.952;2023-01-29T10:47:46;101862.50;;;2.95;100.00
4586;BME280;2305;50.118;8.952;2023-01-29T10:50:38;101867.81;;;2.92;100.00
4586;BME280;2305;50.118;8.952;2023-01-29T10:53:23;101846.25;;;2.87;100.00
4586;BME280;2305;50.118;8.952;2023-01-29T10:55:59;101845.22;;;2.92;100.00
4586;BME280;2305;50.118;8.952;2023-01-29T10:58:48;101838.03;;;3.02;100.00
4586;BME280;2305;50.118;8.952;2023-01-29T11:01:18;101833.28;;;3.17;100.00
4586;BME280;2305;50.118;8.952;2023-01-29T11:03:55;101829.69;;;3.21;100.00
4586;BME280;2305;50.118;8.952;2023-01-29T11:06:29;101819.88;;;3.31;100.00
4586;BME280;2305;50.118;8.952;2023-01-29T11:09:03;101827.47;;;3.38;100.00
4586;BME280;2305;50.118;8.952;2023-01-29T11:11:35;101823.41;;;3.28;100.00
4586;BME280;2305;50.118;8.952;2023-01-29T11:14:11;101812.03;;;3.31;100.00
4586;BME280;2305;50.118;8.952;2023-01-29T11:16:43;101812.66;;;3.40;100.00
4586;BME280;2305;50.118;8.952;2023-01-29T11:19:15;101806.38;;;3.47;100.00
4586;BME280;2305;50.118;8.952;2023-01-29T11:21:52;101801.78;;;3.55;100.00
4586;BME280;2305;50.118;8.952;2023-01-29T11:24:23;101786.03;;;3.58;100.00
4586;BME280;2305;50.118;8.952;2023-01-29T11:26:56;101785.53;;;3.47;100.00
4586;BME280;2305;50.118;8.952;2023-01-29T11:29:37;101779.97;;;3.59;100.00
4586;BME280;2305;50.118;8.952;2023-01-29T11:32:07;101775.19;;;3.73;100.00
4586;BME280;2305;50.118;8.952;2023-01-29T11:34:59;101779.38;;;3.77;100.00
4586;BME280;2305;50.118;8.952;2023-01-29T11:37:35;101769.53;;;3.59;100.00
4586;BME280;2305;50.118;8.952;2023-01-29T11:40:31;101774.47;;;3.39;100.00
4586;BME280;2305;50.118;8.952;2023-01-29T11:43:29;101767.19;;;3.50;100.00
4586;BME280;2305;50.118;8.952;2023-01-29T11:46:01;101764.81;;;3.43;100.00
4586;BME280;2305;50.118;8.952;2023-01-29T11:48:38;101767.66;;;3.34;100.00
4586;BME280;2305;50.118;8.952;2023-01-29T11:51:11;101760.84;;;3.59;100.00
4586;BME280;2305;50.118;8.952;2023-01-29T11:53:42;101752.72;;;3.69;100.00
4586;BME280;2305;50.118;8.952;2023-01-29T11:56:20;101750.84;;;3.45;100.00
4586;BME280;2305;50.118;8.952;2023-01-29T11:58:50;101749.69;;;3.54;100.00
4586;BME280;2305;50.118;8.952;2023-01-29T12:01:29;101746.84;;;3.63;100.00
4586;BME280;2305;50.118;8.952;2023-01-29T12:04:00;101738.91;;;3.66;100.00
4586;BME280;2305;50.118;8.952;2023-01-29T12:06:33;101723.66;;;3.81;100.00
4586;BME280;2305;50.118;8.952;2023-01-29T12:09:14;101722.22;;;3.99;100.00
4586;BME280;2305;50.118;8.952;2023-01-29T12:11:44;101723.31;;;4.18;100.00
4586;BME280;2305;50.118;8.952;2023-01-29T12:14:27;101720.47;;;4.25;100.00
4586;BME280;2305;50.118;8.952;2023-01-29T12:16:58;101720.09;;;4.35;100.00
4586;BME280;2305;50.118;8.952;2023-01-29T12:19:34;101719.56;;;4.26;100.00
4586;BME280;2305;50.118;8.952;2023-01-29T12:22:09;101711.38;;;4.11;100.00
4586;BME280;2305;50.118;8.952;2023-01-29T12:24:45;101710.41;;;4.39;100.00
4586;BME280;2305;50.118;8.952;2023-01-29T12:27:18;101702.88;;;4.54;100.00
4586;BME280;2305;50.118;8.952;2023-01-29T12:29:55;101684.13;;;4.45;100.00
4586;BME280;2305;50.118;8.952;2023-01-29T12:32:33;101696.41;;;4.41;100.00
4586;BME280;2305;50.118;8.952;2023-01-29T12:35:11;101701.09;;;4.06;100.00
4586;BME280;2305;50.118;8.952;2023-01-29T12:37:48;101692.84;;;4.20;100.00
4586;BME280;2305;50.118;8.952;2023-01-29T12:40:24;101690.16;;;4.45;100.00
4586;BME280;2305;50.118;8.952;2023-01-29T12:43:01;101685.28;;;4.61;100.00
4586;BME280;2305;50.118;8.952;2023-01-29T12:45:38;101675.41;;;4.69;100.00
4586;BME280;2305;50.118;8.952;2023-01-29T12:48:12;101674.34;;;4.50;100.00
4586;BME280;2305;50.118;8.952;2023-01-29T12:50:41;101675.16;;;4.52;100.00
4586;BME280;2305;50.118;8.952;2023-01-29T12:53:22;101658.94;;;4.67;100.00
4586;BME280;2305;50.118;8.952;2023-01-29T12:55:57;101657.69;;;4.54;100.00
4586;BME280;2305;50.118;8.952;2023-01-29T12:58:33;101657.91;;;4.48;100.00
4586;BME280;2305;50.118;8.952;2023-01-29T13:01:05;101658.31;;;4.36;100.00
4586;BME280;2305;50.118;8.952;2023-01-29T13:03:45;101654.16;;;4.30;100.00
4586;BME280;2305;50.118;8.952;2023-01-29T13:06:17;101641.63;;;4.17;100.00
4586;BME280;2305;50.118;8.952;2023-01-29T13:08:50;101635.28;;;3.74;100.00
4586;BME280;2305;50.118;8.952;2023-01-29T13:11:26;101623.16;;;3.73;100.00
4586;BME280;2305;50.118;8.952;2023-01-29T13:14:00;101633.63;;;3.45;100.00
4586;BME280;2305;50.118;8.952;2023-01-29T13:16:35;101626.03;;;3.38;100.00
4586;BME280;2305;50.118;8.952;2023-01-29T13:19:08;101636.44;;;3.38;100.00
4586;BME280;2305;50.118;8.952;2023-01-29T13:21:41;101626.03;;;3.38;100.00
4586;BME280;2305;50.118;8.952;2023-01-29T13:24:16;101631.63;;;3.53;100.00
4586;BME280;2305;50.118;8.952;2023-01-29T13:26:47;101621.84;;;3.60;100.00
4586;BME280;2305;50.118;8.952;2023-01-29T13:29:21;101623.94;;;3.75;100.00
4586;BME280;2305;50.118;8.952;2023-01-29T13:31:53;101623.56;;;4.11;100.00
4586;BME280;2305;50.118;8.952;2023-01-29T13:34:24;101629.03;;;4.28;100.00
4586;BME280;2305;50.118;8.952;2023-01-29T13:36:56;101618.72;;;4.49;100.00
4586;BME280;2305;50.118;8.952;2023-01-29T13:39:28;101616.72;;;4.79;100.00
4586;BME280;2305;50.118;8.952;2023-01-29T13:42:01;101620.16;;;5.02;100.00
4586;BME280;2305;50.118;8.952;2023-01-29T13:44:34;101625.47;;;5.01;100.00
4586;BME280;2305;50.118;8.952;2023-01-29T13:47:07;101622.19;;;5.17;100.00